sensor_id;sensor_type;location;lat;lon;timestamp;temperature;humidity
9980;DHT22;5030;51.532;6.766;2023-02-28T00:00:26;-1.30;99.90
9980;DHT22;5030;51.532;6.766;2023-02-28T00:02:52;-1.40;99.90
9980;DHT22;5030;51.532;6.766;2023-02-28T00:05:20;-1.40;99.90
9980;DHT22;5030;51.532;6.766;2023-02-28T00:07:47;-1.10;99.90
9980;DHT22;5030;51.532;6.766;2023-02-28T00:10:19;-1.10;99.90
9980;DHT22;5030;51.532;6.766;2023-02-28T00:12:47;-1.40;99.90
9980;DHT22;5030;51.532;6.766;2023-02-28T00:15:13;-1.60;99.90
9980;DHT22;5030;51.532;6.766;2023-02-28T00:17:38;-1.70;99.90
9980;DHT22;5030;51.532;6.766;2023-02-28T00:20:05;-1.60;99.90
9980;DHT22;5030;51.532;6.766;2023-02-28T00:22:36;-1.70;99.90
9980;DHT22;5030;51.532;6.766;2023-02-28T00:25:03;-1.80;99.90
9980;DHT22;5030;51.532;6.766;2023-02-28T00:27:29;-1.80;99.90
9980;DHT22;5030;51.532;6.766;2023-02-28T00:29:55;-1.70;99.90
9980;DHT22;5030;51.532;6.766;2023-02-28T00:32:20;-1.70;99.90
9980;DHT22;5030;51.532;6.766;2023-02-28T00:34:46;-1.80;99.90
9980;DHT22;5030;51.532;6.766;2023-02-28T00:37:11;-1.70;99.90
9980;DHT22;5030;51.532;6.766;2023-02-28T00:39:39;-1.70;99.90
9980;DHT22;5030;51.532;6.766;2023-02-28T00:42:06;-1.70;99.90
9980;DHT22;5030;51.532;6.766;2023-02-28T00:44:32;-1.70;99.90
9980;DHT22;5030;51.532;6.766;2023-02-28T00:46:58;-1.70;99.90
9980;DHT22;5030;51.532;6.766;2023-02-28T00:49:26;-1.80;99.90
9980;DHT22;5030;51.532;6.766;2023-02-28T00:51:52;-1.90;99.90
9980;DHT22;5030;51.532;6.766;2023-02-28T00:54:18;-1.90;99.90
9980;DHT22;5030;51.532;6.766;2023-02-28T00:56:44;-2.00;99.90
9980;DHT22;5030;51.532;6.766;2023-02-28T00:59:12;-2.00;99.90
9980;DHT22;5030;51.532;6.766;2023-02-28T01:01:37;-2.10;99.90
9980;DHT22;5030;51.532;6.766;2023-02-28T01:04:03;-2.10;99.90
9980;DHT22;5030;51.532;6.766;2023-02-28T01:06:30;-2.20;99.90
9980;DHT22;5030;51.532;6.766;2023-02-28T01:08:55;-2.20;99.90
9980;DHT22;5030;51.532;6.766;2023-02-28T01:11:21;-2.20;99.90
9980;DHT22;5030;51.532;6.766;2023-02-28T01:13:47;-2.40;99.90
9980;DHT22;5030;51.532;6.766;2023-02-28T01:16:13;-2.20;99.90
9980;DHT22;5030;51.532;6.766;2023-02-28T01:18:39;-2.40;99.90
9980;DHT22;5030;51.532;6.766;2023-02-28T01:21:11;-2.20;99.90
9980;DHT22;5030;51.532;6.766;2023-02-28T01:23:38;-2.00;99.90
9980;DHT22;5030;51.532;6.766;2023-02-28T01:26:09;-2.00;99.90
9980;DHT22;5030;51.532;6.766;2023-02-28T01:28:35;-2.00;99.90
9980;DHT22;5030;51.532;6.766;2023-02-28T01:31:01;-2.10;99.90
9980;DHT22;5030;51.532;6.766;2023-02-28T01:33:27;-2.20;99.90
9980;DHT22;5030;51.532;6.766;2023-02-28T01:36:03;-2.30;99.90
9980;DHT22;5030;51.532;6.766;2023-02-28T01:38:29;-2.20;99.90
9980;DHT22;5030;51.532;6.766;2023-02-28T01:40:55;-2.10;99.90
9980;DHT22;5030;51.532;6.766;2023-02-28T01:43:28;-2.20;99.90
9980;DHT22;5030;51.532;6.766;2023-02-28T01:45:55;-2.30;99.90
9980;DHT22;5030;51.532;6.766;2023-02-28T01:48:42;-2.40;99.90
9980;DHT22;5030;51.532;6.766;2023-02-28T01:51:17;-2.50;99.90
9980;DHT22;5030;51.532;6.766;2023-02-28T01:53:59;-2.60;99.90
9980;DHT22;5030;51.532;6.766;2023-02-28T01:56:29;-2.50;99.90
9980;DHT22;5030;51.532;6.766;2023-02-28T01:58:56;-2.40;99.90
9980;DHT22;5030;51.532;6.766;2023-02-28T02:01:22;-2.50;99.90
9980;DHT22;5030;51.532;6.766;2023-02-28T02:03:49;-2.40;99.90
9980;DHT22;5030;51.532;6.766;2023-02-28T02:06:37;-2.70;99.90
9980;DHT22;5030;51.532;6.766;2023-02-28T02:09:03;-2.70;99.90
9980;DHT22;5030;51.532;6.766;2023-02-28T02:11:29;-2.80;99.90
9980;DHT22;5030;51.532;6.766;2023-02-28T02:17:25;-3.00;99.90
9980;DHT22;5030;51.532;6.766;2023-02-28T02:28:39;-3.30;99.90
9980;DHT22;5030;51.532;6.766;2023-02-28T02:34:16;-3.20;99.90
9980;DHT22;5030;51.532;6.766;2023-02-28T02:36:52;-3.40;99.90
9980;DHT22;5030;51.532;6.766;2023-02-28T02:42:14;-3.30;99.90
9980;DHT22;5030;51.532;6.766;2023-02-28T02:44:46;-3.20;99.90
9980;DHT22;5030;51.532;6.766;2023-02-28T02:47:16;-3.30;99.90
9980;DHT22;5030;51.532;6.766;2023-02-28T02:49:49;-3.40;99.90
9980;DHT22;5030;51.532;6.766;2023-02-28T02:52:20;-3.00;99.90
9980;DHT22;5030;51.532;6.766;2023-02-28T02:54:48;-3.00;99.90
9980;DHT22;5030;51.532;6.766;2023-02-28T02:59:53;-2.90;99.90
9980;DHT22;5030;51.532;6.766;2023-02-28T03:02:21;-2.90;99.90
9980;DHT22;5030;51.532;6.766;2023-02-28T03:04:58;-2.70;99.90
9980;DHT22;5030;51.532;6.766;2023-02-28T03:07:26;-2.80;99.90
9980;DHT22;5030;51.532;6.766;2023-02-28T03:09:54;-2.80;99.90
9980;DHT22;5030;51.532;6.766;2023-02-28T03:12:21;-2.90;99.90
9980;DHT22;5030;51.532;6.766;2023-02-28T03:17:54;-2.80;99.90
9980;DHT22;5030;51.532;6.766;2023-02-28T03:20:32;-3.00;99.90
9980;DHT22;5030;51.532;6.766;2023-02-28T03:25:52;-3.00;99.90
9980;DHT22;5030;51.532;6.766;2023-02-28T03:28:31;-3.00;99.90
9980;DHT22;5030;51.532;6.766;2023-02-28T03:31:09;-3.00;99.90
9980;DHT22;5030;51.532;6.766;2023-02-28T03:33:41;-3.00;99.90
9980;DHT22;5030;51.532;6.766;2023-02-28T03:36:17;-3.00;99.90
9980;DHT22;5030;51.532;6.766;2023-02-28T03:39:08;-2.80;99.90
9980;DHT22;5030;51.532;6.766;2023-02-28T03:41:47;-2.90;99.90
9980;DHT22;5030;51.532;6.766;2023-02-28T03:44:27;-2.70;99.90
9980;DHT22;5030;51.532;6.766;2023-02-28T03:47:07;-2.80;99.90
9980;DHT22;5030;51.532;6.766;2023-02-28T03:50:21;-2.70;99.90
9980;DHT22;5030;51.532;6.766;2023-02-28T03:52:31;-2.80;99.90
9980;DHT22;5030;51.532;6.766;2023-02-28T03:55:02;-2.70;99.90
9980;DHT22;5030;51.532;6.766;2023-02-28T04:00:21;-2.90;99.90
9980;DHT22;5030;51.532;6.766;2023-02-28T04:02:50;-2.90;99.90
9980;DHT22;5030;51.532;6.766;2023-02-28T04:05:19;-2.90;99.90
9980;DHT22;5030;51.532;6.766;2023-02-28T04:07:44;-3.10;99.90
9980;DHT22;5030;51.532;6.766;2023-02-28T04:10:11;-3.30;99.90
9980;DHT22;5030;51.532;6.766;2023-02-28T04:12:38;-3.20;99.90
9980;DHT22;5030;51.532;6.766;2023-02-28T04:15:04;-3.00;99.90
9980;DHT22;5030;51.532;6.766;2023-02-28T04:17:30;-3.10;99.90
9980;DHT22;5030;51.532;6.766;2023-02-28T04:19:56;-3.30;99.90
9980;DHT22;5030;51.532;6.766;2023-02-28T04:22:23;-3.40;99.90
9980;DHT22;5030;51.532;6.766;2023-02-28T04:24:51;-3.60;99.90
9980;DHT22;5030;51.532;6.766;2023-02-28T04:27:19;-3.60;99.90
9980;DHT22;5030;51.532;6.766;2023-02-28T04:29:45;-3.60;99.90
9980;DHT22;5030;51.532;6.766;2023-02-28T04:32:10;-3.60;99.90
9980;DHT22;5030;51.532;6.766;2023-02-28T04:34:36;-3.50;99.90
9980;DHT22;5030;51.532;6.766;2023-02-28T04:37:02;-3.50;99.90
9980;DHT22;5030;51.532;6.766;2023-02-28T04:39:28;-3.50;99.90
9980;DHT22;5030;51.532;6.766;2023-02-28T04:41:55;-3.50;99.90
9980;DHT22;5030;51.532;6.766;2023-02-28T04:44:21;-3.50;99.90
9980;DHT22;5030;51.532;6.766;2023-02-28T04:46:48;-3.40;99.90
9980;DHT22;5030;51.532;6.766;2023-02-28T04:49:15;-3.30;99.90
9980;DHT22;5030;51.532;6.766;2023-02-28T04:51:41;-3.30;99.90
9980;DHT22;5030;51.532;6.766;2023-02-28T04:54:07;-3.20;99.90
9980;DHT22;5030;51.532;6.766;2023-02-28T04:56:33;-3.20;99.90
9980;DHT22;5030;51.532;6.766;2023-02-28T04:58:59;-3.10;99.90
9980;DHT22;5030;51.532;6.766;2023-02-28T05:03:52;-2.90;99.90
9980;DHT22;5030;51.532;6.766;2023-02-28T05:06:18;-3.10;99.90
9980;DHT22;5030;51.532;6.766;2023-02-28T05:08:43;-3.20;99.90
9980;DHT22;5030;51.532;6.766;2023-02-28T05:11:16;-3.20;99.90
9980;DHT22;5030;51.532;6.766;2023-02-28T05:13:43;-3.20;99.90
9980;DHT22;5030;51.532;6.766;2023-02-28T05:16:08;-3.00;99.90
9980;DHT22;5030;51.532;6.766;2023-02-28T05:18:34;-2.90;99.90
9980;DHT22;5030;51.532;6.766;2023-02-28T05:21:00;-3.00;99.90
9980;DHT22;5030;51.532;6.766;2023-02-28T05:23:28;-3.30;99.90
9980;DHT22;5030;51.532;6.766;2023-02-28T05:25:55;-3.50;99.90
9980;DHT22;5030;51.532;6.766;2023-02-28T05:28:20;-3.70;99.90
9980;DHT22;5030;51.532;6.766;2023-02-28T05:30:47;-3.70;99.90
9980;DHT22;5030;51.532;6.766;2023-02-28T05:33:13;-3.70;99.90
9980;DHT22;5030;51.532;6.766;2023-02-28T05:35:40;-3.80;99.90
9980;DHT22;5030;51.532;6.766;2023-02-28T05:38:06;-3.90;99.90
9980;DHT22;5030;51.532;6.766;2023-02-28T05:40:33;-3.90;99.90
9980;DHT22;5030;51.532;6.766;2023-02-28T05:42:59;-3.80;99.90
9980;DHT22;5030;51.532;6.766;2023-02-28T05:45:25;-3.80;99.90
9980;DHT22;5030;51.532;6.766;2023-02-28T05:47:54;-3.90;99.90
9980;DHT22;5030;51.532;6.766;2023-02-28T05:50:21;-3.90;99.90
9980;DHT22;5030;51.532;6.766;2023-02-28T05:52:50;-3.90;99.90
9980;DHT22;5030;51.532;6.766;2023-02-28T05:55:16;-4.00;99.90
9980;DHT22;5030;51.532;6.766;2023-02-28T05:57:42;-4.00;99.90
9980;DHT22;5030;51.532;6.766;2023-02-28T06:00:09;-4.20;99.90
9980;DHT22;5030;51.532;6.766;2023-02-28T06:02:35;-4.00;99.90
9980;DHT22;5030;51.532;6.766;2023-02-28T06:05:01;-4.10;99.90
9980;DHT22;5030;51.532;6.766;2023-02-28T06:07:27;-4.10;99.90
9980;DHT22;5030;51.532;6.766;2023-02-28T06:09:52;-4.10;99.90
9980;DHT22;5030;51.532;6.766;2023-02-28T06:12:18;-4.10;99.90
9980;DHT22;5030;51.532;6.766;2023-02-28T06:14:43;-4.10;99.90
9980;DHT22;5030;51.532;6.766;2023-02-28T06:17:09;-4.20;99.90
9980;DHT22;5030;51.532;6.766;2023-02-28T06:19:37;-4.20;99.90
9980;DHT22;5030;51.532;6.766;2023-02-28T06:22:04;-4.30;99.90
9980;DHT22;5030;51.532;6.766;2023-02-28T06:24:30;-4.20;99.90
9980;DHT22;5030;51.532;6.766;2023-02-28T06:26:56;-3.90;99.90
9980;DHT22;5030;51.532;6.766;2023-02-28T06:29:24;-3.80;99.90
9980;DHT22;5030;51.532;6.766;2023-02-28T06:31:50;-3.90;99.90
9980;DHT22;5030;51.532;6.766;2023-02-28T06:34:16;-4.00;99.90
9980;DHT22;5030;51.532;6.766;2023-02-28T06:36:43;-4.00;99.90
9980;DHT22;5030;51.532;6.766;2023-02-28T06:39:09;-4.00;99.90
9980;DHT22;5030;51.532;6.766;2023-02-28T06:41:35;-4.00;99.90
9980;DHT22;5030;51.532;6.766;2023-02-28T06:44:04;-3.80;99.90
9980;DHT22;5030;51.532;6.766;2023-02-28T06:46:31;-4.00;99.90
9980;DHT22;5030;51.532;6.766;2023-02-28T06:48:57;-3.90;99.90
9980;DHT22;5030;51.532;6.766;2023-02-28T06:51:23;-3.80;99.90
9980;DHT22;5030;51.532;6.766;2023-02-28T06:53:50;-3.90;99.90
9980;DHT22;5030;51.532;6.766;2023-02-28T06:56:16;-3.90;99.90
9980;DHT22;5030;51.532;6.766;2023-02-28T06:58:45;-4.00;99.90
9980;DHT22;5030;51.532;6.766;2023-02-28T07:01:11;-4.00;99.90
9980;DHT22;5030;51.532;6.766;2023-02-28T07:03:37;-3.90;99.90
9980;DHT22;5030;51.532;6.766;2023-02-28T07:06:04;-3.90;99.90
9980;DHT22;5030;51.532;6.766;2023-02-28T07:08:30;-3.80;99.90
9980;DHT22;5030;51.532;6.766;2023-02-28T07:10:57;-3.80;99.90
9980;DHT22;5030;51.532;6.766;2023-02-28T07:13:24;-3.80;99.90
9980;DHT22;5030;51.532;6.766;2023-02-28T07:15:57;-3.70;99.90
9980;DHT22;5030;51.532;6.766;2023-02-28T07:18:23;-3.60;99.90
9980;DHT22;5030;51.532;6.766;2023-02-28T07:20:49;-3.60;99.90
9980;DHT22;5030;51.532;6.766;2023-02-28T07:23:15;-3.50;99.90
9980;DHT22;5030;51.532;6.766;2023-02-28T07:25:40;-3.50;99.90
9980;DHT22;5030;51.532;6.766;2023-02-28T07:28:06;-3.30;99.90
9980;DHT22;5030;51.532;6.766;2023-02-28T07:30:31;-3.30;99.90
9980;DHT22;5030;51.532;6.766;2023-02-28T07:32:57;-3.20;99.90
9980;DHT22;5030;51.532;6.766;2023-02-28T07:35:23;-3.10;99.90
9980;DHT22;5030;51.532;6.766;2023-02-28T07:37:49;-3.00;99.90
9980;DHT22;5030;51.532;6.766;2023-02-28T07:40:15;-2.80;99.90
9980;DHT22;5030;51.532;6.766;2023-02-28T07:42:43;-2.70;99.90
9980;DHT22;5030;51.532;6.766;2023-02-28T07:45:10;-2.70;99.90
9980;DHT22;5030;51.532;6.766;2023-02-28T07:47:38;-2.70;99.90
9980;DHT22;5030;51.532;6.766;2023-02-28T07:50:05;-2.70;99.90
9980;DHT22;5030;51.532;6.766;2023-02-28T07:52:31;-2.60;99.90
9980;DHT22;5030;51.532;6.766;2023-02-28T07:54:57;-2.60;99.90
9980;DHT22;5030;51.532;6.766;2023-02-28T07:57:23;-2.40;99.90
9980;DHT22;5030;51.532;6.766;2023-02-28T07:59:49;-2.50;99.90
9980;DHT22;5030;51.532;6.766;2023-02-28T08:02:16;-2.40;99.90
9980;DHT22;5030;51.532;6.766;2023-02-28T08:04:44;-2.20;99.90
9980;DHT22;5030;51.532;6.766;2023-02-28T08:07:12;-1.80;99.90
9980;DHT22;5030;51.532;6.766;2023-02-28T08:09:39;-1.70;99.90
9980;DHT22;5030;51.532;6.766;2023-02-28T08:12:05;-1.50;99.90
9980;DHT22;5030;51.532;6.766;2023-02-28T08:14:31;-1.20;99.90
9980;DHT22;5030;51.532;6.766;2023-02-28T08:16:56;-1.10;99.90
9980;DHT22;5030;51.532;6.766;2023-02-28T08:19:22;-1.10;99.90
9980;DHT22;5030;51.532;6.766;2023-02-28T08:21:47;-1.00;99.90
9980;DHT22;5030;51.532;6.766;2023-02-28T08:24:13;-0.80;99.90
9980;DHT22;5030;51.532;6.766;2023-02-28T08:26:39;-0.70;99.90
9980;DHT22;5030;51.532;6.766;2023-02-28T08:29:04;-0.50;99.90
9980;DHT22;5030;51.532;6.766;2023-02-28T08:31:30;-0.20;99.90
9980;DHT22;5030;51.532;6.766;2023-02-28T08:33:56;-0.30;99.90
9980;DHT22;5030;51.532;6.766;2023-02-28T08:36:24;-0.30;99.90
9980;DHT22;5030;51.532;6.766;2023-02-28T08:38:51;-0.10;95.80
9980;DHT22;5030;51.532;6.766;2023-02-28T08:41:17;0.00;93.10
9980;DHT22;5030;51.532;6.766;2023-02-28T08:43:42;0.00;93.20
9980;DHT22;5030;51.532;6.766;2023-02-28T08:46:11;0.10;94.10
9980;DHT22;5030;51.532;6.766;2023-02-28T08:48:37;0.20;93.70
9980;DHT22;5030;51.532;6.766;2023-02-28T08:51:08;0.40;90.20
9980;DHT22;5030;51.532;6.766;2023-02-28T08:53:37;0.60;86.60
9980;DHT22;5030;51.532;6.766;2023-02-28T08:56:13;0.70;83.40
9980;DHT22;5030;51.532;6.766;2023-02-28T08:58:39;0.90;85.10
9980;DHT22;5030;51.532;6.766;2023-02-28T09:01:14;1.10;69.40
9980;DHT22;5030;51.532;6.766;2023-02-28T09:03:41;1.20;62.20
9980;DHT22;5030;51.532;6.766;2023-02-28T09:06:08;1.20;56.30
9980;DHT22;5030;51.532;6.766;2023-02-28T09:08:34;1.40;49.00
9980;DHT22;5030;51.532;6.766;2023-02-28T09:11:00;1.50;53.50
9980;DHT22;5030;51.532;6.766;2023-02-28T09:13:27;1.70;52.20
9980;DHT22;5030;51.532;6.766;2023-02-28T09:15:54;2.10;45.90
9980;DHT22;5030;51.532;6.766;2023-02-28T09:18:21;2.10;45.50
9980;DHT22;5030;51.532;6.766;2023-02-28T09:20:46;2.10;29.20
9980;DHT22;5030;51.532;6.766;2023-02-28T09:23:12;2.30;34.60
9980;DHT22;5030;51.532;6.766;2023-02-28T09:25:48;2.30;27.90
9980;DHT22;5030;51.532;6.766;2023-02-28T09:28:15;2.60;30.80
9980;DHT22;5030;51.532;6.766;2023-02-28T09:30:43;2.60;16.50
9980;DHT22;5030;51.532;6.766;2023-02-28T09:33:09;2.70;13.60
9980;DHT22;5030;51.532;6.766;2023-02-28T09:35:35;2.90;12.40
9980;DHT22;5030;51.532;6.766;2023-02-28T09:38:02;3.20;4.70
9980;DHT22;5030;51.532;6.766;2023-02-28T09:40:28;3.20;1.00
9980;DHT22;5030;51.532;6.766;2023-02-28T09:42:55;3.20;1.00
9980;DHT22;5030;51.532;6.766;2023-02-28T09:47:48;3.40;1.00
9980;DHT22;5030;51.532;6.766;2023-02-28T09:50:46;3.50;1.00
9980;DHT22;5030;51.532;6.766;2023-02-28T09:53:28;3.50;1.00
9980;DHT22;5030;51.532;6.766;2023-02-28T09:56:07;3.70;1.00
9980;DHT22;5030;51.532;6.766;2023-02-28T09:58:47;4.00;1.00
9980;DHT22;5030;51.532;6.766;2023-02-28T10:01:28;4.20;1.00
9980;DHT22;5030;51.532;6.766;2023-02-28T10:03:56;4.20;1.00
9980;DHT22;5030;51.532;6.766;2023-02-28T10:06:28;4.10;1.00
9980;DHT22;5030;51.532;6.766;2023-02-28T10:09:07;4.10;1.00
9980;DHT22;5030;51.532;6.766;2023-02-28T10:11:36;4.10;1.00
9980;DHT22;5030;51.532;6.766;2023-02-28T10:14:19;4.20;1.00
9980;DHT22;5030;51.532;6.766;2023-02-28T10:16:56;4.40;1.00
9980;DHT22;5030;51.532;6.766;2023-02-28T10:19:44;4.50;1.00
9980;DHT22;5030;51.532;6.766;2023-02-28T10:22:15;4.00;1.00
9980;DHT22;5030;51.532;6.766;2023-02-28T10:24:50;4.40;1.00
9980;DHT22;5030;51.532;6.766;2023-02-28T10:27:29;4.30;1.00
9980;DHT22;5030;51.532;6.766;2023-02-28T10:29:57;4.20;1.00
9980;DHT22;5030;51.532;6.766;2023-02-28T10:32:30;4.30;1.00
9980;DHT22;5030;51.532;6.766;2023-02-28T10:37:37;4.30;1.00
9980;DHT22;5030;51.532;6.766;2023-02-28T10:40:05;4.30;1.00
9980;DHT22;5030;51.532;6.766;2023-02-28T10:42:31;4.40;1.00
9980;DHT22;5030;51.532;6.766;2023-02-28T10:45:12;4.40;1.00
9980;DHT22;5030;51.532;6.766;2023-02-28T10:48:02;4.10;1.00
9980;DHT22;5030;51.532;6.766;2023-02-28T10:53:28;4.50;1.00
9980;DHT22;5030;51.532;6.766;2023-02-28T11:03:57;4.10;1.00
9980;DHT22;5030;51.532;6.766;2023-02-28T11:06:33;4.10;1.00
9980;DHT22;5030;51.532;6.766;2023-02-28T11:09:33;4.10;1.00
9980;DHT22;5030;51.532;6.766;2023-02-28T11:12:02;3.90;1.00
9980;DHT22;5030;51.532;6.766;2023-02-28T11:14:32;3.80;1.00
9980;DHT22;5030;51.532;6.766;2023-02-28T11:17:13;3.90;1.00
9980;DHT22;5030;51.532;6.766;2023-02-28T11:19:45;3.90;1.00
9980;DHT22;5030;51.532;6.766;2023-02-28T11:22:20;4.10;1.00
9980;DHT22;5030;51.532;6.766;2023-02-28T11:24:50;4.20;1.00
9980;DHT22;5030;51.532;6.766;2023-02-28T11:29:55;4.60;1.00
9980;DHT22;5030;51.532;6.766;2023-02-28T11:32:23;4.60;1.00
9980;DHT22;5030;51.532;6.766;2023-02-28T11:37:36;4.70;1.00
9980;DHT22;5030;51.532;6.766;2023-02-28T11:40:02;4.80;1.00
9980;DHT22;5030;51.532;6.766;2023-02-28T11:45:51;4.70;1.00
9980;DHT22;5030;51.532;6.766;2023-02-28T11:48:21;4.90;1.00
9980;DHT22;5030;51.532;6.766;2023-02-28T11:50:57;5.20;1.00
9980;DHT22;5030;51.532;6.766;2023-02-28T11:54:00;5.30;1.00
9980;DHT22;5030;51.532;6.766;2023-02-28T11:57:16;5.20;1.00
9980;DHT22;5030;51.532;6.766;2023-02-28T11:59:53;5.10;1.00
9980;DHT22;5030;51.532;6.766;2023-02-28T12:02:29;5.20;1.00
9980;DHT22;5030;51.532;6.766;2023-02-28T12:05:25;5.00;1.00
9980;DHT22;5030;51.532;6.766;2023-02-28T12:10:57;5.20;1.00
9980;DHT22;5030;51.532;6.766;2023-02-28T12:22:11;5.20;1.00
9980;DHT22;5030;51.532;6.766;2023-02-28T12:27:16;5.20;1.00
9980;DHT22;5030;51.532;6.766;2023-02-28T12:30:16;5.30;1.00
9980;DHT22;5030;51.532;6.766;2023-02-28T12:32:48;5.40;1.00
9980;DHT22;5030;51.532;6.766;2023-02-28T12:35:22;5.50;1.00
9980;DHT22;5030;51.532;6.766;2023-02-28T12:40:19;5.50;1.00
9980;DHT22;5030;51.532;6.766;2023-02-28T12:42:59;5.50;1.00
9980;DHT22;5030;51.532;6.766;2023-02-28T12:45:41;5.60;1.00
9980;DHT22;5030;51.532;6.766;2023-02-28T12:48:11;5.80;1.00
9980;DHT22;5030;51.532;6.766;2023-02-28T12:50:40;5.90;1.00
9980;DHT22;5030;51.532;6.766;2023-02-28T12:53:27;5.90;1.00
9980;DHT22;5030;51.532;6.766;2023-02-28T12:58:38;6.20;1.00
9980;DHT22;5030;51.532;6.766;2023-02-28T13:09:15;6.70;1.00
9980;DHT22;5030;51.532;6.766;2023-02-28T13:11:50;6.90;1.00
9980;DHT22;5030;51.532;6.766;2023-02-28T13:22:18;7.20;1.00
9980;DHT22;5030;51.532;6.766;2023-02-28T13:24:55;7.50;1.00
9980;DHT22;5030;51.532;6.766;2023-02-28T13:27:24;7.70;1.00
9980;DHT22;5030;51.532;6.766;2023-02-28T13:29:56;7.80;1.00
9980;DHT22;5030;51.532;6.766;2023-02-28T13:55:53;8.00;1.00
9980;DHT22;5030;51.532;6.766;2023-02-28T14:08:03;7.70;1.00
9980;DHT22;5030;51.532;6.766;2023-02-28T14:11:09;8.00;1.00
9980;DHT22;5030;51.532;6.766;2023-02-28T14:17:34;8.30;1.00
9980;DHT22;5030;51.532;6.766;2023-02-28T14:20:32;8.00;1.00
9980;DHT22;5030;51.532;6.766;2023-02-28T14:37:53;8.80;1.00
9980;DHT22;5030;51.532;6.766;2023-02-28T14:40:38;8.50;1.00
9980;DHT22;5030;51.532;6.766;2023-02-28T14:43:16;7.90;1.00
9980;DHT22;5030;51.532;6.766;2023-02-28T14:45:44;7.70;1.00
9980;DHT22;5030;51.532;6.766;2023-02-28T14:48:16;8.10;1.00
9980;DHT22;5030;51.532;6.766;2023-02-28T14:50:50;8.40;1.00
9980;DHT22;5030;51.532;6.766;2023-02-28T14:53:22;9.00;1.00
9980;DHT22;5030;51.532;6.766;2023-02-28T14:55:49;9.10;1.00
9980;DHT22;5030;51.532;6.766;2023-02-28T14:58:27;9.30;1.00
9980;DHT22;5030;51.532;6.766;2023-02-28T15:00:56;8.60;1.00
9980;DHT22;5030;51.532;6.766;2023-02-28T15:03:34;8.50;1.00
9980;DHT22;5030;51.532;6.766;2023-02-28T15:06:06;8.10;1.00
9980;DHT22;5030;51.532;6.766;2023-02-28T15:08:32;8.30;1.00
9980;DHT22;5030;51.532;6.766;2023-02-28T15:11:02;8.30;1.00
9980;DHT22;5030;51.532;6.766;2023-02-28T15:13:53;8.50;1.00
9980;DHT22;5030;51.532;6.766;2023-02-28T15:16:31;8.60;1.00
9980;DHT22;5030;51.532;6.766;2023-02-28T15:19:00;8.60;1.00
9980;DHT22;5030;51.532;6.766;2023-02-28T15:21:31;8.30;1.00
9980;DHT22;5030;51.532;6.766;2023-02-28T15:26:50;8.70;1.00
9980;DHT22;5030;51.532;6.766;2023-02-28T15:29:19;9.10;1.00
9980;DHT22;5030;51.532;6.766;2023-02-28T15:32:18;9.20;1.00
9980;DHT22;5030;51.532;6.766;2023-02-28T15:34:39;9.10;1.00
9980;DHT22;5030;51.532;6.766;2023-02-28T15:39:56;8.70;1.00
9980;DHT22;5030;51.532;6.766;2023-02-28T15:42:29;8.70;1.00
9980;DHT22;5030;51.532;6.766;2023-02-28T15:44:56;8.70;1.00
9980;DHT22;5030;51.532;6.766;2023-02-28T15:47:27;8.40;1.00
9980;DHT22;5030;51.532;6.766;2023-02-28T15:50:05;8.10;1.00
9980;DHT22;5030;51.532;6.766;2023-02-28T15:55:20;7.30;1.00
9980;DHT22;5030;51.532;6.766;2023-02-28T15:58:00;6.90;1.00
9980;DHT22;5030;51.532;6.766;2023-02-28T16:00:31;6.50;1.00
9980;DHT22;5030;51.532;6.766;2023-02-28T16:02:59;6.30;1.00
9980;DHT22;5030;51.532;6.766;2023-02-28T16:05:29;5.80;1.00
9980;DHT22;5030;51.532;6.766;2023-02-28T16:08:14;5.70;1.00
9980;DHT22;5030;51.532;6.766;2023-02-28T16:10:42;5.50;1.00
9980;DHT22;5030;51.532;6.766;2023-02-28T16:13:18;5.40;1.00
9980;DHT22;5030;51.532;6.766;2023-02-28T16:15:46;5.30;1.00
9980;DHT22;5030;51.532;6.766;2023-02-28T16:18:14;5.20;1.00
9980;DHT22;5030;51.532;6.766;2023-02-28T16:20:43;5.20;1.00
9980;DHT22;5030;51.532;6.766;2023-02-28T16:23:10;5.20;1.00
9980;DHT22;5030;51.532;6.766;2023-02-28T16:25:38;5.10;1.00
9980;DHT22;5030;51.532;6.766;2023-02-28T16:28:29;5.00;1.00
9980;DHT22;5030;51.532;6.766;2023-02-28T16:30:56;5.00;1.00
9980;DHT22;5030;51.532;6.766;2023-02-28T16:33:22;4.80;1.00
9980;DHT22;5030;51.532;6.766;2023-02-28T16:35:48;4.90;1.00
9980;DHT22;5030;51.532;6.766;2023-02-28T16:38:14;4.90;1.00
9980;DHT22;5030;51.532;6.766;2023-02-28T16:40:42;4.90;1.00
9980;DHT22;5030;51.532;6.766;2023-02-28T16:43:13;4.70;1.00
9980;DHT22;5030;51.532;6.766;2023-02-28T16:45:40;4.50;1.00
9980;DHT22;5030;51.532;6.766;2023-02-28T16:48:12;4.50;1.00
9980;DHT22;5030;51.532;6.766;2023-02-28T16:50:39;4.40;1.00
9980;DHT22;5030;51.532;6.766;2023-02-28T16:53:04;4.40;1.00
9980;DHT22;5030;51.532;6.766;2023-02-28T16:55:30;4.30;1.00
9980;DHT22;5030;51.532;6.766;2023-02-28T16:58:00;4.00;1.00
9980;DHT22;5030;51.532;6.766;2023-02-28T17:00:28;3.90;1.00
9980;DHT22;5030;51.532;6.766;2023-02-28T17:02:55;3.90;5.20
9980;DHT22;5030;51.532;6.766;2023-02-28T17:05:21;3.70;5.90
9980;DHT22;5030;51.532;6.766;2023-02-28T17:07:47;3.60;10.50
9980;DHT22;5030;51.532;6.766;2023-02-28T17:10:22;3.40;16.40
9980;DHT22;5030;51.532;6.766;2023-02-28T17:12:48;3.40;17.40
9980;DHT22;5030;51.532;6.766;2023-02-28T17:15:16;3.30;21.20
9980;DHT22;5030;51.532;6.766;2023-02-28T17:17:43;3.20;24.00
9980;DHT22;5030;51.532;6.766;2023-02-28T17:20:21;3.10;26.80
9980;DHT22;5030;51.532;6.766;2023-02-28T17:22:49;3.00;28.30
9980;DHT22;5030;51.532;6.766;2023-02-28T17:25:15;3.00;30.20
9980;DHT22;5030;51.532;6.766;2023-02-28T17:27:43;2.90;32.70
9980;DHT22;5030;51.532;6.766;2023-02-28T17:30:23;2.80;36.80
9980;DHT22;5030;51.532;6.766;2023-02-28T17:32:56;2.60;37.00
9980;DHT22;5030;51.532;6.766;2023-02-28T17:35:23;2.50;38.90
9980;DHT22;5030;51.532;6.766;2023-02-28T17:37:49;2.40;40.50
9980;DHT22;5030;51.532;6.766;2023-02-28T17:40:22;2.30;44.70
9980;DHT22;5030;51.532;6.766;2023-02-28T17:42:48;2.00;44.60
9980;DHT22;5030;51.532;6.766;2023-02-28T17:45:15;1.80;49.20
9980;DHT22;5030;51.532;6.766;2023-02-28T17:47:43;1.70;54.20
9980;DHT22;5030;51.532;6.766;2023-02-28T17:50:16;1.50;57.20
9980;DHT22;5030;51.532;6.766;2023-02-28T17:52:42;1.40;60.80
9980;DHT22;5030;51.532;6.766;2023-02-28T17:55:12;1.40;63.80
9980;DHT22;5030;51.532;6.766;2023-02-28T17:57:42;1.30;64.70
9980;DHT22;5030;51.532;6.766;2023-02-28T18:00:11;1.20;68.90
9980;DHT22;5030;51.532;6.766;2023-02-28T18:02:38;1.30;71.40
9980;DHT22;5030;51.532;6.766;2023-02-28T18:05:05;1.20;71.40
9980;DHT22;5030;51.532;6.766;2023-02-28T18:07:31;1.20;75.20
9980;DHT22;5030;51.532;6.766;2023-02-28T18:09:57;1.20;72.60
9980;DHT22;5030;51.532;6.766;2023-02-28T18:12:22;1.30;69.00
9980;DHT22;5030;51.532;6.766;2023-02-28T18:14:48;1.20;70.10
9980;DHT22;5030;51.532;6.766;2023-02-28T18:17:14;1.10;73.50
9980;DHT22;5030;51.532;6.766;2023-02-28T18:19:40;0.90;78.60
9980;DHT22;5030;51.532;6.766;2023-02-28T18:22:05;0.70;81.60
9980;DHT22;5030;51.532;6.766;2023-02-28T18:24:33;0.60;90.50
9980;DHT22;5030;51.532;6.766;2023-02-28T18:26:59;0.50;94.80
9980;DHT22;5030;51.532;6.766;2023-02-28T18:29:26;0.50;96.60
9980;DHT22;5030;51.532;6.766;2023-02-28T18:31:54;0.40;96.20
9980;DHT22;5030;51.532;6.766;2023-02-28T18:34:24;0.30;97.90
9980;DHT22;5030;51.532;6.766;2023-02-28T18:36:51;0.10;98.40
9980;DHT22;5030;51.532;6.766;2023-02-28T18:39:17;0.10;99.90
9980;DHT22;5030;51.532;6.766;2023-02-28T18:41:43;0.00;99.90
9980;DHT22;5030;51.532;6.766;2023-02-28T18:44:10;-0.20;99.90
9980;DHT22;5030;51.532;6.766;2023-02-28T18:46:36;-0.10;99.90
9980;DHT22;5030;51.532;6.766;2023-02-28T18:49:02;-0.20;99.90
9980;DHT22;5030;51.532;6.766;2023-02-28T18:51:29;-0.30;99.90
9980;DHT22;5030;51.532;6.766;2023-02-28T18:53:55;-0.40;99.90
9980;DHT22;5030;51.532;6.766;2023-02-28T18:56:22;-0.40;99.90
9980;DHT22;5030;51.532;6.766;2023-02-28T18:58:50;-0.30;99.90
9980;DHT22;5030;51.532;6.766;2023-02-28T19:01:25;-0.40;99.90
9980;DHT22;5030;51.532;6.766;2023-02-28T19:03:54;-0.50;99.90